createdAt,value
2023-01-19T00:00:55.630Z,99.90
2023-01-19T00:03:22.570Z,99.90
2023-01-19T00:05:49.851Z,99.90
2023-01-19T00:08:17.384Z,99.10
2023-01-19T00:10:51.126Z,99.90
2023-01-19T00:13:18.580Z,97.20
2023-01-19T00:15:45.782Z,94.60
2023-01-19T00:18:13.050Z,99.90
2023-01-19T00:20:40.769Z,99.90
2023-01-19T00:23:08.803Z,99.90
2023-01-19T00:25:42.192Z,99.60
2023-01-19T00:28:14.027Z,99.90
2023-01-19T00:30:42.261Z,99.90
2023-01-19T00:33:10.708Z,99.90
2023-01-19T00:35:37.750Z,99.90
2023-01-19T00:38:04.830Z,98.90
2023-01-19T00:43:00.242Z,96.70
2023-01-19T00:45:27.473Z,99.90
2023-01-19T00:47:57.036Z,99.90
2023-01-19T00:50:29.365Z,99.90
2023-01-19T00:52:57.813Z,99.90
2023-01-19T00:55:24.970Z,99.90
2023-01-19T00:57:51.971Z,99.90
2023-01-19T01:00:21.193Z,99.90
2023-01-19T01:02:51.510Z,99.90
2023-01-19T01:05:20.077Z,99.90
2023-01-19T01:07:49.492Z,99.90
2023-01-19T01:10:17.884Z,99.90
2023-01-19T01:12:57.347Z,99.90
2023-01-19T01:15:32.764Z,99.90
2023-01-19T01:17:59.735Z,99.90
2023-01-19T01:20:30.160Z,99.90
2023-01-19T01:22:57.963Z,99.90
2023-01-19T01:25:28.556Z,99.90
2023-01-19T01:27:55.700Z,99.90
2023-01-19T01:30:23.607Z,99.90
2023-01-19T01:32:50.618Z,99.90
2023-01-19T01:35:17.693Z,99.90
2023-01-19T01:37:45.039Z,99.90
2023-01-19T01:40:14.850Z,99.90
2023-01-19T01:42:42.540Z,99.90
2023-01-19T01:48:06.531Z,99.90
2023-01-19T01:50:38.972Z,99.90
2023-01-19T01:53:12.458Z,99.90
2023-01-19T01:55:48.179Z,99.90
2023-01-19T01:58:16.372Z,99.90
2023-01-19T02:01:01.776Z,99.90
2023-01-19T02:03:29.119Z,99.90
2023-01-19T02:06:00.754Z,99.90
2023-01-19T02:09:05.455Z,99.90
2023-01-19T02:11:51.858Z,99.90
2023-01-19T02:14:21.436Z,99.90
2023-01-19T02:16:48.716Z,99.90
2023-01-19T02:19:28.391Z,99.90
2023-01-19T02:22:09.898Z,99.90
2023-01-19T02:24:37.281Z,99.90
2023-01-19T02:29:34.076Z,99.90
2023-01-19T02:32:03.141Z,99.90
2023-01-19T02:34:30.698Z,99.90
2023-01-19T02:37:11.478Z,99.90
2023-01-19T02:40:01.922Z,99.90
2023-01-19T02:42:35.231Z,99.90
2023-01-19T02:45:09.439Z,99.90
2023-01-19T02:56:02.955Z,99.90
2023-01-19T03:02:00.890Z,99.90
2023-01-19T03:04:49.109Z,99.90
2023-01-19T03:08:08.271Z,99.90
2023-01-19T03:11:01.488Z,99.90
2023-01-19T03:13:56.204Z,99.90
2023-01-19T03:19:04.395Z,99.90
2023-01-19T03:21:36.222Z,99.90
2023-01-19T03:29:06.972Z,99.90
2023-01-19T03:31:35.112Z,99.90
2023-01-19T03:46:40.367Z,99.90
2023-01-19T03:59:05.988Z,99.90
2023-01-19T04:01:33.029Z,99.90
2023-01-19T04:04:00.050Z,99.90
2023-01-19T04:08:55.154Z,99.90
2023-01-19T04:11:22.140Z,99.90
2023-01-19T04:13:49.064Z,99.90
2023-01-19T04:23:44.391Z,99.90
2023-01-19T04:26:11.385Z,99.90
2023-01-19T04:28:38.949Z,99.90
2023-01-19T04:31:08.113Z,99.90
2023-01-19T04:33:35.422Z,99.90
2023-01-19T04:36:03.991Z,99.90
2023-01-19T04:38:31.067Z,99.90
2023-01-19T04:40:58.016Z,99.90
2023-01-19T04:43:25.157Z,99.90
2023-01-19T04:45:52.232Z,99.90
2023-01-19T04:48:19.616Z,99.90
2023-01-19T05:10:28.991Z,99.90
2023-01-19T05:12:56.058Z,99.90
2023-01-19T05:15:23.520Z,99.90
2023-01-19T05:17:50.627Z,99.90
2023-01-19T05:20:17.783Z,99.90
2023-01-19T05:22:52.647Z,99.90
2023-01-19T05:25:20.289Z,99.90
2023-01-19T05:27:47.392Z,99.90
2023-01-19T05:30:14.772Z,99.90
2023-01-19T05:32:41.794Z,97.30
2023-01-19T05:35:09.391Z,99.90
2023-01-19T05:37:36.558Z,99.90
2023-01-19T05:40:04.012Z,99.90
2023-01-19T05:42:32.814Z,99.90
2023-01-19T05:45:00.235Z,99.90
2023-01-19T05:47:30.038Z,99.90
2023-01-19T05:49:57.751Z,99.90
2023-01-19T05:52:27.588Z,99.90
2023-01-19T05:54:55.216Z,99.90
2023-01-19T05:57:23.400Z,99.90
2023-01-19T05:59:50.409Z,99.90
2023-01-19T06:02:17.707Z,99.90
2023-01-19T06:04:44.939Z,99.90
2023-01-19T06:07:11.981Z,99.90
2023-01-19T06:09:39.039Z,99.90
2023-01-19T06:12:06.464Z,99.90
2023-01-19T06:14:33.397Z,99.90
2023-01-19T06:17:00.602Z,99.90
2023-01-19T06:19:27.676Z,97.10
2023-01-19T06:21:54.673Z,92.80
2023-01-19T06:24:23.018Z,95.00
2023-01-19T06:26:49.999Z,83.20
2023-01-19T06:29:17.216Z,52.20
2023-01-19T06:31:44.228Z,27.50
2023-01-19T06:34:11.439Z,62.90
2023-01-19T06:36:38.899Z,55.20
2023-01-19T06:39:06.277Z,65.20
2023-01-19T06:41:34.594Z,73.60
2023-01-19T06:44:02.158Z,93.90
2023-01-19T06:46:29.585Z,92.90
2023-01-19T06:48:56.737Z,91.80
2023-01-19T06:51:23.958Z,92.20
2023-01-19T06:53:50.997Z,99.10
2023-01-19T06:56:17.936Z,99.90
2023-01-19T06:58:47.677Z,99.90
2023-01-19T07:01:14.860Z,99.70
2023-01-19T07:03:41.907Z,75.50
2023-01-19T07:06:08.939Z,84.40
2023-01-19T07:08:37.676Z,93.20
2023-01-19T07:11:26.446Z,77.90
2023-01-19T07:13:57.862Z,92.70
2023-01-19T07:16:25.257Z,99.90
2023-01-19T07:18:52.361Z,99.90
2023-01-19T07:21:19.584Z,99.90
2023-01-19T07:23:51.167Z,99.90
2023-01-19T07:26:21.122Z,99.90
2023-01-19T07:28:48.982Z,99.90
2023-01-19T07:31:16.833Z,99.90
2023-01-19T07:33:44.543Z,99.90
2023-01-19T07:36:12.147Z,99.90
2023-01-19T07:38:39.540Z,99.90
2023-01-19T07:41:09.761Z,99.90
2023-01-19T07:43:36.776Z,99.90
2023-01-19T07:46:06.275Z,99.90
2023-01-19T07:48:33.372Z,99.90
2023-01-19T07:51:05.670Z,99.90
2023-01-19T07:53:32.908Z,99.90
2023-01-19T07:56:00.088Z,99.90
2023-01-19T07:58:27.195Z,99.90
2023-01-19T08:00:54.834Z,99.90
2023-01-19T08:03:22.016Z,99.90
2023-01-19T08:05:53.293Z,99.90
2023-01-19T08:08:20.476Z,99.90
2023-01-19T08:10:51.947Z,99.90
2023-01-19T08:13:19.124Z,99.90
2023-01-19T08:15:53.120Z,99.90
2023-01-19T08:18:21.126Z,99.90
2023-01-19T08:20:48.180Z,99.90
2023-01-19T08:23:15.489Z,99.90
2023-01-19T08:25:45.011Z,99.90
2023-01-19T08:28:16.835Z,99.90
2023-01-19T08:30:45.068Z,99.90
2023-01-19T08:35:43.489Z,99.90
2023-01-19T08:38:10.900Z,99.90
2023-01-19T08:40:40.699Z,99.90
2023-01-19T08:43:11.923Z,99.90
2023-01-19T08:45:42.432Z,90.10
2023-01-19T08:48:10.263Z,1.00
2023-01-19T08:50:37.288Z,1.00
2023-01-19T08:53:06.913Z,1.00
2023-01-19T08:55:36.286Z,5.50
2023-01-19T09:03:04.951Z,1.00
2023-01-19T09:05:37.192Z,1.00
2023-01-19T09:13:08.375Z,1.00
2023-01-19T09:25:31.109Z,1.00
2023-01-19T09:28:00.576Z,99.90
2023-01-19T09:30:27.910Z,33.40
2023-01-19T09:32:55.015Z,1.00
2023-01-19T09:35:22.068Z,1.00
2023-01-19T09:37:49.039Z,1.00
2023-01-19T09:40:18.701Z,1.00
2023-01-19T09:42:56.963Z,1.00
2023-01-19T09:45:49.561Z,1.00
2023-01-19T09:48:39.446Z,99.90
2023-01-19T09:51:13.725Z,20.10
2023-01-19T09:53:56.621Z,99.90
2023-01-19T09:56:24.436Z,99.90
2023-01-19T09:58:52.296Z,1.00
2023-01-19T10:02:01.339Z,99.90
2023-01-19T10:04:43.660Z,1.00
2023-01-19T10:07:32.933Z,99.90
2023-01-19T10:10:25.996Z,1.00
2023-01-19T10:13:01.831Z,99.90
2023-01-19T10:16:24.598Z,99.90
2023-01-19T10:18:57.446Z,99.90
2023-01-19T10:21:39.100Z,1.00
2023-01-19T10:24:23.957Z,49.50
2023-01-19T10:26:54.991Z,99.90
2023-01-19T10:29:39.166Z,1.00
2023-01-19T10:32:31.224Z,99.90
2023-01-19T10:34:59.906Z,99.90
2023-01-19T10:37:37.926Z,99.90
2023-01-19T10:40:11.064Z,1.00
2023-01-19T10:42:40.761Z,99.90
2023-01-19T10:45:32.073Z,1.00
2023-01-19T10:48:06.415Z,1.00
2023-01-19T10:50:37.425Z,99.90
2023-01-19T10:53:06.406Z,11.10
2023-01-19T10:55:39.266Z,1.00
2023-01-19T10:58:30.242Z,1.00
2023-01-19T11:01:28.273Z,3.90
2023-01-19T11:04:00.050Z,47.70
2023-01-19T11:06:30.723Z,99.90
2023-01-19T11:09:20.998Z,1.00
2023-01-19T11:11:51.734Z,99.90
2023-01-19T11:16:54.977Z,99.90
2023-01-19T11:19:30.193Z,1.00
2023-01-19T11:22:22.767Z,1.00
2023-01-19T11:24:50.191Z,1.00
2023-01-19T11:27:21.105Z,1.00
2023-01-19T11:30:09.669Z,99.90
2023-01-19T11:32:37.127Z,1.00
2023-01-19T11:35:33.580Z,99.90
2023-01-19T11:38:06.422Z,1.00
2023-01-19T11:40:35.484Z,1.00
2023-01-19T11:43:02.722Z,1.00
2023-01-19T11:45:30.317Z,99.90
2023-01-19T11:47:57.276Z,84.80
2023-01-19T11:50:41.611Z,99.90
2023-01-19T11:53:29.114Z,99.90
2023-01-19T11:56:04.587Z,1.00
2023-01-19T11:58:38.226Z,1.00
2023-01-19T12:01:30.853Z,99.90
2023-01-19T12:04:24.880Z,1.00
2023-01-19T12:06:55.612Z,1.00
2023-01-19T12:09:28.628Z,72.10
2023-01-19T12:12:27.208Z,1.00
2023-01-19T12:15:22.680Z,1.00
2023-01-19T12:17:52.416Z,99.90
2023-01-19T12:23:11.244Z,1.00
2023-01-19T12:25:59.625Z,99.90
2023-01-19T12:28:34.222Z,99.90
2023-01-19T12:31:02.129Z,1.00
2023-01-19T12:33:29.144Z,99.90
2023-01-19T12:36:30.239Z,1.00
2023-01-19T12:39:04.298Z,1.00
2023-01-19T12:41:34.966Z,99.90
2023-01-19T12:44:16.557Z,1.00
2023-01-19T12:47:06.389Z,1.00
2023-01-19T12:49:58.536Z,99.90
2023-01-19T12:52:41.544Z,1.00
2023-01-19T12:55:14.622Z,99.90
2023-01-19T12:57:55.461Z,1.00
2023-01-19T13:00:22.277Z,99.90
2023-01-19T13:02:57.135Z,99.90
2023-01-19T13:05:33.252Z,1.00
2023-01-19T13:08:03.428Z,1.00
2023-01-19T13:11:10.278Z,99.90
2023-01-19T13:13:45.113Z,1.00
2023-01-19T13:16:25.133Z,11.40
2023-01-19T13:19:14.946Z,1.00
2023-01-19T13:21:48.180Z,99.90
2023-01-19T13:24:22.260Z,2.40
2023-01-19T13:26:49.133Z,99.90
2023-01-19T13:29:30.680Z,99.90
2023-01-19T13:32:17.603Z,91.20
2023-01-19T13:34:51.183Z,99.90
2023-01-19T13:37:26.013Z,1.00
2023-01-19T13:39:54.893Z,99.90
2023-01-19T13:42:40.416Z,99.90
2023-01-19T13:45:34.651Z,99.90
2023-01-19T13:48:06.106Z,99.90
2023-01-19T13:50:37.299Z,1.00
2023-01-19T13:53:20.527Z,1.00
2023-01-19T13:56:21.907Z,1.00
2023-01-19T13:59:09.863Z,1.00
2023-01-19T14:01:42.908Z,1.00
2023-01-19T14:04:32.744Z,1.00
2023-01-19T14:07:06.212Z,1.00
2023-01-19T14:09:33.288Z,1.00
2023-01-19T14:12:15.957Z,1.00
2023-01-19T14:14:46.817Z,1.00
2023-01-19T14:17:29.567Z,1.00
2023-01-19T14:20:00.813Z,1.00
2023-01-19T14:22:43.372Z,1.00
2023-01-19T14:25:35.730Z,1.00
2023-01-19T14:28:42.273Z,1.00
2023-01-19T14:31:26.538Z,1.00
2023-01-19T14:33:55.818Z,1.00
2023-01-19T14:36:39.344Z,1.00
2023-01-19T14:39:16.297Z,1.00
2023-01-19T14:41:54.674Z,1.00
2023-01-19T14:44:40.629Z,1.00
2023-01-19T14:59:48.398Z,1.00
2023-01-19T15:02:19.269Z,1.00
2023-01-19T15:04:48.110Z,1.00
2023-01-19T15:07:19.336Z,1.00
2023-01-19T15:09:47.549Z,1.00
2023-01-19T15:14:45.386Z,1.00
2023-01-19T15:17:25.646Z,1.00
2023-01-19T15:19:57.200Z,1.00
2023-01-19T15:22:28.297Z,99.90
2023-01-19T15:24:59.826Z,1.00
2023-01-19T15:27:27.742Z,1.00
2023-01-19T15:29:54.813Z,1.00
2023-01-19T15:32:21.830Z,1.00
2023-01-19T15:34:48.763Z,1.00
2023-01-19T15:37:15.697Z,1.00
2023-01-19T15:39:42.662Z,1.00
2023-01-19T15:42:14.464Z,1.00
2023-01-19T15:47:09.982Z,1.00
2023-01-19T15:49:36.956Z,1.00
2023-01-19T15:52:04.042Z,1.00
2023-01-19T15:54:30.957Z,1.00
2023-01-19T15:56:57.916Z,1.00
2023-01-19T15:59:24.914Z,1.00
2023-01-19T16:01:52.238Z,1.00
2023-01-19T16:04:19.277Z,1.00
2023-01-19T16:06:46.195Z,1.00
2023-01-19T16:09:18.330Z,1.00
2023-01-19T16:11:46.008Z,1.00
2023-01-19T16:14:13.011Z,1.00
2023-01-19T16:16:40.127Z,1.00
2023-01-19T16:19:07.062Z,1.00
2023-01-19T16:21:34.939Z,1.00
2023-01-19T16:24:01.932Z,1.00
2023-01-19T16:26:34.127Z,7.30
2023-01-19T16:29:09.922Z,31.70
2023-01-19T16:31:38.666Z,80.90
2023-01-19T16:34:05.849Z,92.20
2023-01-19T16:36:35.717Z,92.40
2023-01-19T16:39:12.916Z,96.30
2023-01-19T16:41:41.008Z,99.90
2023-01-19T16:44:09.535Z,99.90
2023-01-19T16:46:40.366Z,99.90
2023-01-19T16:49:16.084Z,99.90
2023-01-19T16:51:43.603Z,99.90
2023-01-19T16:54:23.393Z,99.90
2023-01-19T16:56:50.341Z,99.90
2023-01-19T16:59:17.774Z,99.90
2023-01-19T17:01:45.674Z,99.90
2023-01-19T17:04:13.156Z,99.90
2023-01-19T17:06:40.676Z,99.90
2023-01-19T17:09:09.417Z,99.90
2023-01-19T17:11:37.041Z,93.20
2023-01-19T17:14:07.306Z,96.30
2023-01-19T17:16:35.550Z,85.80
2023-01-19T17:19:05.803Z,82.80
2023-01-19T17:21:33.465Z,99.90
2023-01-19T17:24:00.854Z,99.90
2023-01-19T17:26:30.896Z,99.90
2023-01-19T17:29:07.817Z,99.90
2023-01-19T17:34:03.270Z,99.90
2023-01-19T17:36:32.289Z,99.90
2023-01-19T17:39:05.338Z,99.90
2023-01-19T17:41:37.344Z,99.90
2023-01-19T17:44:05.818Z,99.90
2023-01-19T17:46:37.520Z,99.90
2023-01-19T17:49:07.304Z,99.90
2023-01-19T17:51:34.617Z,99.90
2023-01-19T17:54:02.117Z,99.90
2023-01-19T17:56:33.080Z,99.90
2023-01-19T17:59:00.167Z,99.90
2023-01-19T18:01:31.190Z,99.90
2023-01-19T18:03:58.707Z,99.90
2023-01-19T18:06:26.176Z,99.90
2023-01-19T18:08:54.024Z,99.90
2023-01-19T18:11:21.846Z,99.90
2023-01-19T18:13:50.704Z,99.90
2023-01-19T18:16:28.779Z,99.90
2023-01-19T18:18:57.228Z,98.60
2023-01-19T18:21:28.054Z,99.90
2023-01-19T18:24:02.150Z,94.60
2023-01-19T18:26:30.646Z,96.90
2023-01-19T18:28:58.779Z,99.90
2023-01-19T18:31:27.608Z,99.90
2023-01-19T18:33:55.041Z,99.90
2023-01-19T18:36:22.154Z,99.90
2023-01-19T18:38:49.926Z,99.90
2023-01-19T18:41:19.585Z,99.90
2023-01-19T18:43:47.290Z,99.90
2023-01-19T18:46:15.577Z,99.90
2023-01-19T18:48:42.543Z,99.90
2023-01-19T18:51:14.872Z,99.90
2023-01-19T18:53:43.065Z,99.90
2023-01-19T18:56:13.890Z,99.90
2023-01-19T18:58:41.456Z,99.90
2023-01-19T19:01:31.491Z,99.90
2023-01-19T19:03:59.523Z,96.30
2023-01-19T19:06:27.489Z,91.40
2023-01-19T19:08:57.539Z,99.90
2023-01-19T19:11:25.888Z,99.90
2023-01-19T19:14:01.509Z,99.90
2023-01-19T19:16:29.920Z,99.90
2023-01-19T19:21:25.511Z,99.90
2023-01-19T19:23:55.710Z,99.90
2023-01-19T19:26:24.547Z,99.90
2023-01-19T19:28:51.523Z,99.90
2023-01-19T19:31:21.453Z,99.90
2023-01-19T19:33:50.935Z,99.90
2023-01-19T19:36:19.783Z,99.90
2023-01-19T19:38:47.643Z,99.90
2023-01-19T19:41:19.363Z,99.90
2023-01-19T19:43:46.462Z,99.90
2023-01-19T19:46:16.279Z,99.90
2023-01-19T19:48:43.316Z,99.90
2023-01-19T19:51:19.187Z,99.90
2023-01-19T19:53:50.083Z,99.90
2023-01-19T19:56:21.196Z,97.10
2023-01-19T19:58:49.688Z,95.80
2023-01-19T20:01:32.592Z,97.20
2023-01-19T20:04:08.115Z,97.70
2023-01-19T20:06:38.803Z,92.80
2023-01-19T20:09:08.966Z,92.40
2023-01-19T20:11:36.543Z,90.80
2023-01-19T20:14:09.148Z,90.00
2023-01-19T20:16:36.915Z,88.50
2023-01-19T20:19:04.409Z,87.70
2023-01-19T20:21:35.649Z,71.40
2023-01-19T20:24:08.049Z,74.00
2023-01-19T20:26:40.335Z,91.70
2023-01-19T20:29:07.447Z,98.00
2023-01-19T20:31:42.185Z,98.50
2023-01-19T20:34:11.700Z,99.90
2023-01-19T20:36:39.395Z,99.90
2023-01-19T20:39:11.113Z,99.90
2023-01-19T20:41:43.601Z,99.90
2023-01-19T20:44:20.354Z,99.90
2023-01-19T20:46:48.050Z,99.90
2023-01-19T20:49:16.175Z,99.90
2023-01-19T20:51:45.187Z,99.90
2023-01-19T20:54:14.888Z,99.90
2023-01-19T20:56:41.914Z,99.90
2023-01-19T20:59:10.971Z,99.90
2023-01-19T21:01:38.641Z,99.90
2023-01-19T21:04:05.742Z,99.90
2023-01-19T21:06:33.334Z,99.90
2023-01-19T21:09:00.399Z,99.90
2023-01-19T21:11:27.805Z,99.90
2023-01-19T21:13:57.706Z,99.90
2023-01-19T21:18:54.739Z,99.90
2023-01-19T21:21:30.198Z,99.90
2023-01-19T21:24:00.023Z,99.90
2023-01-19T21:26:29.731Z,99.90
2023-01-19T21:28:58.598Z,99.90
2023-01-19T21:31:27.740Z,99.90
2023-01-19T21:33:58.681Z,99.90
2023-01-19T21:36:25.853Z,99.90
2023-01-19T21:38:55.564Z,99.90
2023-01-19T21:41:22.972Z,99.90
2023-01-19T21:43:49.977Z,99.90
2023-01-19T21:46:28.734Z,99.90
2023-01-19T21:49:01.144Z,99.90
2023-01-19T21:51:33.257Z,99.90
2023-01-19T21:54:01.311Z,99.90
2023-01-19T21:56:29.850Z,99.90
2023-01-19T21:58:57.948Z,99.90
2023-01-19T22:03:58.175Z,99.90
2023-01-19T22:06:27.037Z,99.90
2023-01-19T22:08:55.061Z,99.90
2023-01-19T22:11:22.336Z,99.90
2023-01-19T22:13:49.304Z,99.90
2023-01-19T22:16:19.924Z,99.90
2023-01-19T22:21:27.146Z,99.90
2023-01-19T22:23:57.127Z,99.90
2023-01-19T22:26:24.710Z,99.90
2023-01-19T22:28:55.620Z,99.90
2023-01-19T22:31:24.148Z,99.90
2023-01-19T22:33:51.805Z,99.90
2023-01-19T22:36:31.438Z,99.90
2023-01-19T22:39:01.206Z,99.90
2023-01-19T22:41:33.586Z,99.90
2023-01-19T22:44:03.983Z,99.90
2023-01-19T22:46:33.968Z,99.90
2023-01-19T22:49:01.434Z,99.90
2023-01-19T22:51:30.360Z,99.90
2023-01-19T22:53:57.908Z,99.90
2023-01-19T22:56:27.996Z,99.90
2023-01-19T22:58:55.406Z,99.90
2023-01-19T23:09:01.240Z,99.90
2023-01-19T23:11:35.699Z,99.90
2023-01-19T23:14:04.849Z,99.90
2023-01-19T23:18:59.629Z,99.90
2023-01-19T23:21:29.475Z,99.90
2023-01-19T23:24:00.453Z,99.90
2023-01-19T23:26:30.797Z,99.90
2023-01-19T23:29:01.112Z,99.90
2023-01-19T23:31:34.507Z,99.90
2023-01-19T23:34:07.194Z,99.90
2023-01-19T23:36:37.240Z,99.90
2023-01-19T23:39:18.724Z,99.90
2023-01-19T23:41:46.216Z,99.90
2023-01-19T23:44:13.881Z,99.90
2023-01-19T23:51:35.831Z,99.90
2023-01-19T23:54:03.070Z,99.90
2023-01-19T23:56:33.473Z,99.90
2023-01-19T23:59:11.445Z,99.90
